sensor_id;sensor_type;location;lat;lon;timestamp;P1;durP1;ratioP1;P2;durP2;ratioP2
59922;SDS011;45778;51.142;3.732;2022-07-04T00:00:05;3.33;;;1.63;;
59922;SDS011;45778;51.142;3.732;2022-07-04T00:02:32;9.00;;;1.70;;
59922;SDS011;45778;51.142;3.732;2022-07-04T00:04:58;4.95;;;1.70;;
59922;SDS011;45778;51.142;3.732;2022-07-04T00:07:24;5.53;;;1.70;;
59922;SDS011;45778;51.142;3.732;2022-07-04T00:09:49;3.50;;;1.77;;
59922;SDS011;45778;51.142;3.732;2022-07-04T00:12:15;7.57;;;1.95;;
59922;SDS011;45778;51.142;3.732;2022-07-04T00:14:41;4.30;;;1.80;;
59922;SDS011;45778;51.142;3.732;2022-07-04T00:17:07;5.10;;;1.90;;
59922;SDS011;45778;51.142;3.732;2022-07-04T00:19:32;5.28;;;2.53;;
59922;SDS011;45778;51.142;3.732;2022-07-04T00:21:58;7.13;;;2.72;;
59922;SDS011;45778;51.142;3.732;2022-07-04T00:24:24;5.10;;;2.10;;
59922;SDS011;45778;51.142;3.732;2022-07-04T00:26:49;5.47;;;2.08;;
59922;SDS011;45778;51.142;3.732;2022-07-04T00:29:15;9.45;;;2.22;;
59922;SDS011;45778;51.142;3.732;2022-07-04T00:31:41;4.05;;;1.85;;
59922;SDS011;45778;51.142;3.732;2022-07-04T00:34:07;5.63;;;2.17;;
59922;SDS011;45778;51.142;3.732;2022-07-04T00:36:33;6.75;;;2.40;;
59922;SDS011;45778;51.142;3.732;2022-07-04T00:38:58;5.20;;;2.40;;
59922;SDS011;45778;51.142;3.732;2022-07-04T00:41:24;9.35;;;2.22;;
59922;SDS011;45778;51.142;3.732;2022-07-04T00:44:03;7.45;;;2.58;;
59922;SDS011;45778;51.142;3.732;2022-07-04T00:46:30;6.15;;;2.83;;
59922;SDS011;45778;51.142;3.732;2022-07-04T00:48:56;4.45;;;2.70;;
59922;SDS011;45778;51.142;3.732;2022-07-04T00:51:22;5.28;;;2.83;;
59922;SDS011;45778;51.142;3.732;2022-07-04T00:53:49;5.85;;;2.63;;
59922;SDS011;45778;51.142;3.732;2022-07-04T00:56:18;9.75;;;2.75;;
59922;SDS011;45778;51.142;3.732;2022-07-04T00:58:45;8.27;;;2.40;;
59922;SDS011;45778;51.142;3.732;2022-07-04T01:01:11;4.80;;;2.72;;
59922;SDS011;45778;51.142;3.732;2022-07-04T01:03:36;5.53;;;2.05;;
59922;SDS011;45778;51.142;3.732;2022-07-04T01:06:02;6.45;;;2.58;;
59922;SDS011;45778;51.142;3.732;2022-07-04T01:08:28;5.85;;;2.80;;
59922;SDS011;45778;51.142;3.732;2022-07-04T01:10:54;7.40;;;2.35;;
59922;SDS011;45778;51.142;3.732;2022-07-04T01:13:23;7.93;;;3.15;;
59922;SDS011;45778;51.142;3.732;2022-07-04T01:15:49;5.70;;;2.50;;
59922;SDS011;45778;51.142;3.732;2022-07-04T01:18:18;7.10;;;2.50;;
59922;SDS011;45778;51.142;3.732;2022-07-04T01:20:44;7.75;;;3.05;;
59922;SDS011;45778;51.142;3.732;2022-07-04T01:23:10;8.60;;;3.15;;
59922;SDS011;45778;51.142;3.732;2022-07-04T01:25:35;5.88;;;3.28;;
59922;SDS011;45778;51.142;3.732;2022-07-04T01:28:02;5.15;;;3.45;;
59922;SDS011;45778;51.142;3.732;2022-07-04T01:30:28;9.85;;;4.00;;
59922;SDS011;45778;51.142;3.732;2022-07-04T01:32:55;7.50;;;3.53;;
59922;SDS011;45778;51.142;3.732;2022-07-04T01:35:21;6.68;;;3.30;;
59922;SDS011;45778;51.142;3.732;2022-07-04T01:37:48;5.43;;;3.15;;
59922;SDS011;45778;51.142;3.732;2022-07-04T01:40:14;10.07;;;3.55;;
59922;SDS011;45778;51.142;3.732;2022-07-04T01:42:40;6.10;;;3.45;;
59922;SDS011;45778;51.142;3.732;2022-07-04T01:45:06;9.68;;;3.28;;
59922;SDS011;45778;51.142;3.732;2022-07-04T01:47:33;5.55;;;3.60;;
59922;SDS011;45778;51.142;3.732;2022-07-04T01:49:59;6.82;;;3.40;;
59922;SDS011;45778;51.142;3.732;2022-07-04T01:52:25;6.32;;;3.65;;
59922;SDS011;45778;51.142;3.732;2022-07-04T01:54:51;7.05;;;4.63;;
59922;SDS011;45778;51.142;3.732;2022-07-04T01:57:16;9.68;;;3.47;;
59922;SDS011;45778;51.142;3.732;2022-07-04T01:59:42;8.70;;;4.13;;
59922;SDS011;45778;51.142;3.732;2022-07-04T02:02:26;9.55;;;3.78;;
59922;SDS011;45778;51.142;3.732;2022-07-04T02:04:51;7.38;;;3.90;;
59922;SDS011;45778;51.142;3.732;2022-07-04T02:07:17;6.28;;;4.13;;
59922;SDS011;45778;51.142;3.732;2022-07-04T02:09:43;6.05;;;3.83;;
59922;SDS011;45778;51.142;3.732;2022-07-04T02:12:08;5.18;;;3.80;;
59922;SDS011;45778;51.142;3.732;2022-07-04T02:14:55;10.40;;;4.15;;
59922;SDS011;45778;51.142;3.732;2022-07-04T02:17:21;7.50;;;4.25;;
59922;SDS011;45778;51.142;3.732;2022-07-04T02:19:47;8.85;;;4.07;;
59922;SDS011;45778;51.142;3.732;2022-07-04T02:22:13;9.02;;;4.22;;
59922;SDS011;45778;51.142;3.732;2022-07-04T02:24:39;7.88;;;4.47;;
59922;SDS011;45778;51.142;3.732;2022-07-04T02:27:04;7.47;;;3.63;;
59922;SDS011;45778;51.142;3.732;2022-07-04T02:29:30;8.85;;;3.90;;
59922;SDS011;45778;51.142;3.732;2022-07-04T02:31:56;7.00;;;4.30;;
59922;SDS011;45778;51.142;3.732;2022-07-04T02:34:22;5.95;;;3.78;;
59922;SDS011;45778;51.142;3.732;2022-07-04T02:36:47;8.60;;;4.40;;
59922;SDS011;45778;51.142;3.732;2022-07-04T02:39:13;9.18;;;4.30;;
59922;SDS011;45778;51.142;3.732;2022-07-04T02:41:39;6.13;;;3.78;;
59922;SDS011;45778;51.142;3.732;2022-07-04T02:44:04;6.47;;;3.92;;
59922;SDS011;45778;51.142;3.732;2022-07-04T02:46:30;11.60;;;4.63;;
59922;SDS011;45778;51.142;3.732;2022-07-04T02:48:59;12.38;;;4.28;;
59922;SDS011;45778;51.142;3.732;2022-07-04T02:51:25;9.55;;;4.15;;
59922;SDS011;45778;51.142;3.732;2022-07-04T02:53:51;8.50;;;4.28;;
59922;SDS011;45778;51.142;3.732;2022-07-04T02:56:16;8.77;;;5.00;;
59922;SDS011;45778;51.142;3.732;2022-07-04T02:58:43;10.18;;;5.10;;
59922;SDS011;45778;51.142;3.732;2022-07-04T03:01:08;8.60;;;4.57;;
59922;SDS011;45778;51.142;3.732;2022-07-04T03:03:35;9.10;;;6.22;;
59922;SDS011;45778;51.142;3.732;2022-07-04T03:06:01;12.65;;;6.50;;
59922;SDS011;45778;51.142;3.732;2022-07-04T03:08:26;15.70;;;6.63;;
59922;SDS011;45778;51.142;3.732;2022-07-04T03:10:52;11.40;;;6.53;;
59922;SDS011;45778;51.142;3.732;2022-07-04T03:13:18;10.60;;;6.60;;
59922;SDS011;45778;51.142;3.732;2022-07-04T03:15:44;9.13;;;6.05;;
59922;SDS011;45778;51.142;3.732;2022-07-04T03:18:11;11.73;;;6.28;;
59922;SDS011;45778;51.142;3.732;2022-07-04T03:20:37;10.13;;;5.53;;
59922;SDS011;45778;51.142;3.732;2022-07-04T03:23:02;11.18;;;6.13;;
59922;SDS011;45778;51.142;3.732;2022-07-04T03:25:28;9.93;;;5.95;;
59922;SDS011;45778;51.142;3.732;2022-07-04T03:27:54;12.75;;;5.72;;
59922;SDS011;45778;51.142;3.732;2022-07-04T03:30:20;9.45;;;5.20;;
59922;SDS011;45778;51.142;3.732;2022-07-04T03:32:45;11.40;;;5.95;;
59922;SDS011;45778;51.142;3.732;2022-07-04T03:35:11;11.10;;;5.22;;
59922;SDS011;45778;51.142;3.732;2022-07-04T03:37:37;10.65;;;5.32;;
59922;SDS011;45778;51.142;3.732;2022-07-04T03:40:03;10.80;;;6.07;;
59922;SDS011;45778;51.142;3.732;2022-07-04T03:42:29;14.75;;;4.68;;
59922;SDS011;45778;51.142;3.732;2022-07-04T03:44:55;11.40;;;5.32;;
59922;SDS011;45778;51.142;3.732;2022-07-04T03:47:21;8.93;;;4.85;;
59922;SDS011;45778;51.142;3.732;2022-07-04T03:49:48;9.55;;;4.93;;
59922;SDS011;45778;51.142;3.732;2022-07-04T03:52:14;9.63;;;4.25;;
59922;SDS011;45778;51.142;3.732;2022-07-04T03:54:39;10.48;;;5.05;;
59922;SDS011;45778;51.142;3.732;2022-07-04T03:57:05;9.88;;;5.00;;
59922;SDS011;45778;51.142;3.732;2022-07-04T03:59:31;10.18;;;4.93;;
59922;SDS011;45778;51.142;3.732;2022-07-04T04:01:56;10.75;;;4.88;;
59922;SDS011;45778;51.142;3.732;2022-07-04T04:04:22;12.77;;;5.60;;
59922;SDS011;45778;51.142;3.732;2022-07-04T04:07:06;12.55;;;4.50;;
59922;SDS011;45778;51.142;3.732;2022-07-04T04:09:33;14.20;;;4.78;;
59922;SDS011;45778;51.142;3.732;2022-07-04T04:11:58;19.10;;;4.82;;
59922;SDS011;45778;51.142;3.732;2022-07-04T04:14:24;9.85;;;4.65;;
59922;SDS011;45778;51.142;3.732;2022-07-04T04:16:51;10.63;;;5.15;;
59922;SDS011;45778;51.142;3.732;2022-07-04T04:19:16;10.48;;;4.80;;
59922;SDS011;45778;51.142;3.732;2022-07-04T04:21:42;12.73;;;5.18;;
59922;SDS011;45778;51.142;3.732;2022-07-04T04:24:07;9.00;;;4.95;;
59922;SDS011;45778;51.142;3.732;2022-07-04T04:26:33;13.25;;;5.43;;
59922;SDS011;45778;51.142;3.732;2022-07-04T04:28:59;12.48;;;5.15;;
59922;SDS011;45778;51.142;3.732;2022-07-04T04:31:25;12.93;;;5.18;;
59922;SDS011;45778;51.142;3.732;2022-07-04T04:33:51;13.40;;;5.22;;
59922;SDS011;45778;51.142;3.732;2022-07-04T04:36:16;14.85;;;5.22;;
59922;SDS011;45778;51.142;3.732;2022-07-04T04:38:42;14.07;;;6.13;;
59922;SDS011;45778;51.142;3.732;2022-07-04T04:41:08;11.68;;;5.78;;
59922;SDS011;45778;51.142;3.732;2022-07-04T04:43:34;13.55;;;5.28;;
59922;SDS011;45778;51.142;3.732;2022-07-04T04:45:59;12.57;;;5.93;;
59922;SDS011;45778;51.142;3.732;2022-07-04T04:48:25;12.52;;;6.10;;
59922;SDS011;45778;51.142;3.732;2022-07-04T04:50:51;16.52;;;6.82;;
59922;SDS011;45778;51.142;3.732;2022-07-04T04:53:17;15.90;;;7.13;;
59922;SDS011;45778;51.142;3.732;2022-07-04T04:55:42;25.05;;;7.93;;
59922;SDS011;45778;51.142;3.732;2022-07-04T04:58:08;17.40;;;7.25;;
59922;SDS011;45778;51.142;3.732;2022-07-04T05:00:34;21.15;;;7.68;;
59922;SDS011;45778;51.142;3.732;2022-07-04T05:02:59;20.00;;;7.60;;
59922;SDS011;45778;51.142;3.732;2022-07-04T05:05:25;19.90;;;7.60;;
59922;SDS011;45778;51.142;3.732;2022-07-04T05:07:51;16.33;;;6.55;;
59922;SDS011;45778;51.142;3.732;2022-07-04T05:10:16;17.90;;;6.20;;
59922;SDS011;45778;51.142;3.732;2022-07-04T05:12:42;13.57;;;5.82;;
59922;SDS011;45778;51.142;3.732;2022-07-04T05:15:09;11.05;;;5.32;;
59922;SDS011;45778;51.142;3.732;2022-07-04T05:17:35;14.18;;;5.50;;
59922;SDS011;45778;51.142;3.732;2022-07-04T05:20:01;13.93;;;6.45;;
59922;SDS011;45778;51.142;3.732;2022-07-04T05:22:28;16.27;;;6.35;;
59922;SDS011;45778;51.142;3.732;2022-07-04T05:24:54;13.45;;;5.75;;
59922;SDS011;45778;51.142;3.732;2022-07-04T05:27:19;10.02;;;6.25;;
59922;SDS011;45778;51.142;3.732;2022-07-04T05:29:45;13.57;;;6.38;;
59922;SDS011;45778;51.142;3.732;2022-07-04T05:32:11;14.68;;;7.05;;
59922;SDS011;45778;51.142;3.732;2022-07-04T05:34:36;11.82;;;6.45;;
59922;SDS011;45778;51.142;3.732;2022-07-04T05:37:02;16.85;;;7.32;;
59922;SDS011;45778;51.142;3.732;2022-07-04T05:39:28;16.38;;;6.78;;
59922;SDS011;45778;51.142;3.732;2022-07-04T05:41:54;16.00;;;7.20;;
59922;SDS011;45778;51.142;3.732;2022-07-04T05:44:20;16.73;;;7.53;;
59922;SDS011;45778;51.142;3.732;2022-07-04T05:46:46;13.77;;;7.47;;
59922;SDS011;45778;51.142;3.732;2022-07-04T05:49:11;16.42;;;7.40;;
59922;SDS011;45778;51.142;3.732;2022-07-04T05:51:37;15.60;;;7.13;;
59922;SDS011;45778;51.142;3.732;2022-07-04T05:54:03;22.02;;;8.63;;
59922;SDS011;45778;51.142;3.732;2022-07-04T05:56:29;30.25;;;9.68;;
59922;SDS011;45778;51.142;3.732;2022-07-04T05:58:55;27.33;;;10.07;;
59922;SDS011;45778;51.142;3.732;2022-07-04T06:01:21;24.67;;;10.35;;
59922;SDS011;45778;51.142;3.732;2022-07-04T06:03:46;25.02;;;9.73;;
59922;SDS011;45778;51.142;3.732;2022-07-04T06:06:12;27.50;;;10.98;;
59922;SDS011;45778;51.142;3.732;2022-07-04T06:08:40;24.83;;;10.63;;
59922;SDS011;45778;51.142;3.732;2022-07-04T06:11:06;23.20;;;11.38;;
59922;SDS011;45778;51.142;3.732;2022-07-04T06:13:31;25.67;;;11.77;;
59922;SDS011;45778;51.142;3.732;2022-07-04T06:15:57;31.58;;;11.48;;
59922;SDS011;45778;51.142;3.732;2022-07-04T06:18:23;22.98;;;10.10;;
59922;SDS011;45778;51.142;3.732;2022-07-04T06:20:49;22.25;;;10.05;;
59922;SDS011;45778;51.142;3.732;2022-07-04T06:23:15;22.60;;;10.77;;
59922;SDS011;45778;51.142;3.732;2022-07-04T06:25:41;21.83;;;10.70;;
59922;SDS011;45778;51.142;3.732;2022-07-04T06:28:06;24.83;;;10.95;;
59922;SDS011;45778;51.142;3.732;2022-07-04T06:30:32;20.83;;;9.82;;
59922;SDS011;45778;51.142;3.732;2022-07-04T06:32:58;24.65;;;9.65;;
59922;SDS011;45778;51.142;3.732;2022-07-04T06:35:29;26.25;;;10.98;;
59922;SDS011;45778;51.142;3.732;2022-07-04T06:38:21;20.60;;;9.35;;
59922;SDS011;45778;51.142;3.732;2022-07-04T06:40:53;21.13;;;9.32;;
59922;SDS011;45778;51.142;3.732;2022-07-04T06:43:21;19.48;;;9.70;;
59922;SDS011;45778;51.142;3.732;2022-07-04T06:45:47;21.70;;;10.10;;
59922;SDS011;45778;51.142;3.732;2022-07-04T06:48:12;26.75;;;9.40;;
59922;SDS011;45778;51.142;3.732;2022-07-04T06:50:38;18.88;;;8.63;;
59922;SDS011;45778;51.142;3.732;2022-07-04T06:53:05;16.48;;;8.90;;
59922;SDS011;45778;51.142;3.732;2022-07-04T06:55:31;22.05;;;9.50;;
59922;SDS011;45778;51.142;3.732;2022-07-04T06:57:57;14.43;;;8.10;;
59922;SDS011;45778;51.142;3.732;2022-07-04T07:00:23;16.77;;;9.30;;
59922;SDS011;45778;51.142;3.732;2022-07-04T07:02:49;14.55;;;9.02;;
59922;SDS011;45778;51.142;3.732;2022-07-04T07:05:15;20.48;;;9.35;;
59922;SDS011;45778;51.142;3.732;2022-07-04T07:07:41;20.25;;;10.75;;
59922;SDS011;45778;51.142;3.732;2022-07-04T07:10:07;20.73;;;9.80;;
59922;SDS011;45778;51.142;3.732;2022-07-04T07:12:34;16.67;;;9.13;;
59922;SDS011;45778;51.142;3.732;2022-07-04T07:15:00;18.77;;;8.35;;
59922;SDS011;45778;51.142;3.732;2022-07-04T07:17:26;16.90;;;8.90;;
59922;SDS011;45778;51.142;3.732;2022-07-04T07:19:52;18.00;;;8.82;;
59922;SDS011;45778;51.142;3.732;2022-07-04T07:22:18;23.30;;;8.85;;
59922;SDS011;45778;51.142;3.732;2022-07-04T07:24:44;18.40;;;7.95;;
59922;SDS011;45778;51.142;3.732;2022-07-04T07:27:10;18.33;;;8.75;;
59922;SDS011;45778;51.142;3.732;2022-07-04T07:29:36;18.55;;;8.02;;
59922;SDS011;45778;51.142;3.732;2022-07-04T07:32:03;16.23;;;8.82;;
59922;SDS011;45778;51.142;3.732;2022-07-04T07:34:29;16.73;;;9.20;;
59922;SDS011;45778;51.142;3.732;2022-07-04T07:36:55;17.88;;;9.23;;
59922;SDS011;45778;51.142;3.732;2022-07-04T07:39:21;20.80;;;9.05;;
59922;SDS011;45778;51.142;3.732;2022-07-04T07:41:46;18.35;;;10.30;;
59922;SDS011;45778;51.142;3.732;2022-07-04T07:44:12;15.25;;;9.10;;
59922;SDS011;45778;51.142;3.732;2022-07-04T07:46:38;15.75;;;8.82;;
59922;SDS011;45778;51.142;3.732;2022-07-04T07:49:04;19.23;;;10.52;;
59922;SDS011;45778;51.142;3.732;2022-07-04T07:51:30;18.85;;;10.95;;
59922;SDS011;45778;51.142;3.732;2022-07-04T07:53:56;19.52;;;10.85;;
59922;SDS011;45778;51.142;3.732;2022-07-04T07:56:22;21.70;;;11.48;;
59922;SDS011;45778;51.142;3.732;2022-07-04T07:58:48;22.55;;;9.52;;
59922;SDS011;45778;51.142;3.732;2022-07-04T08:01:14;22.75;;;11.60;;
59922;SDS011;45778;51.142;3.732;2022-07-04T08:03:39;17.35;;;10.35;;
59922;SDS011;45778;51.142;3.732;2022-07-04T08:06:24;18.75;;;9.63;;
59922;SDS011;45778;51.142;3.732;2022-07-04T08:08:49;18.33;;;10.85;;
59922;SDS011;45778;51.142;3.732;2022-07-04T08:11:15;25.52;;;11.90;;
59922;SDS011;45778;51.142;3.732;2022-07-04T08:13:41;23.50;;;10.43;;
59922;SDS011;45778;51.142;3.732;2022-07-04T08:16:07;23.63;;;11.02;;
59922;SDS011;45778;51.142;3.732;2022-07-04T08:18:33;30.30;;;12.23;;
59922;SDS011;45778;51.142;3.732;2022-07-04T08:20:59;21.23;;;10.10;;
59922;SDS011;45778;51.142;3.732;2022-07-04T08:23:25;23.15;;;11.68;;
59922;SDS011;45778;51.142;3.732;2022-07-04T08:25:51;18.02;;;10.65;;
59922;SDS011;45778;51.142;3.732;2022-07-04T08:28:17;16.35;;;9.95;;
59922;SDS011;45778;51.142;3.732;2022-07-04T08:30:43;17.73;;;10.40;;
59922;SDS011;45778;51.142;3.732;2022-07-04T08:33:09;16.40;;;9.32;;
59922;SDS011;45778;51.142;3.732;2022-07-04T08:35:34;18.33;;;9.20;;
59922;SDS011;45778;51.142;3.732;2022-07-04T08:38:00;20.33;;;7.32;;
59922;SDS011;45778;51.142;3.732;2022-07-04T08:40:26;21.90;;;9.75;;
59922;SDS011;45778;51.142;3.732;2022-07-04T08:42:53;23.33;;;8.57;;
59922;SDS011;45778;51.142;3.732;2022-07-04T08:45:28;16.95;;;7.13;;
59922;SDS011;45778;51.142;3.732;2022-07-04T08:48:02;20.75;;;9.23;;
59922;SDS011;45778;51.142;3.732;2022-07-04T08:50:30;15.00;;;7.60;;
59922;SDS011;45778;51.142;3.732;2022-07-04T08:52:59;16.88;;;7.20;;
59922;SDS011;45778;51.142;3.732;2022-07-04T08:55:27;13.23;;;6.45;;
59922;SDS011;45778;51.142;3.732;2022-07-04T08:58:13;12.10;;;6.20;;
59922;SDS011;45778;51.142;3.732;2022-07-04T09:00:54;10.98;;;4.68;;
59922;SDS011;45778;51.142;3.732;2022-07-04T09:03:22;14.18;;;5.72;;
59922;SDS011;45778;51.142;3.732;2022-07-04T09:05:49;10.15;;;4.95;;
59922;SDS011;45778;51.142;3.732;2022-07-04T09:08:14;10.02;;;4.68;;
59922;SDS011;45778;51.142;3.732;2022-07-04T09:10:40;13.02;;;3.33;;
59922;SDS011;45778;51.142;3.732;2022-07-04T09:13:07;12.90;;;5.97;;
59922;SDS011;45778;51.142;3.732;2022-07-04T09:15:34;9.68;;;5.05;;
59922;SDS011;45778;51.142;3.732;2022-07-04T09:18:00;9.10;;;4.95;;
59922;SDS011;45778;51.142;3.732;2022-07-04T09:20:28;6.82;;;2.80;;
59922;SDS011;45778;51.142;3.732;2022-07-04T09:22:55;7.55;;;3.33;;
59922;SDS011;45778;51.142;3.732;2022-07-04T09:25:22;8.20;;;3.78;;
59922;SDS011;45778;51.142;3.732;2022-07-04T09:27:53;6.60;;;3.60;;
59922;SDS011;45778;51.142;3.732;2022-07-04T09:30:27;8.85;;;3.28;;
59922;SDS011;45778;51.142;3.732;2022-07-04T09:32:53;4.35;;;2.63;;
59922;SDS011;45778;51.142;3.732;2022-07-04T09:35:28;9.05;;;3.05;;
59922;SDS011;45778;51.142;3.732;2022-07-04T09:37:57;7.63;;;2.78;;
59922;SDS011;45778;51.142;3.732;2022-07-04T09:43:20;9.83;;;3.37;;
59922;SDS011;45778;51.142;3.732;2022-07-04T09:48:22;8.05;;;3.83;;
59922;SDS011;45778;51.142;3.732;2022-07-04T09:50:48;7.88;;;3.47;;
59922;SDS011;45778;51.142;3.732;2022-07-04T09:53:14;8.88;;;3.90;;
59922;SDS011;45778;51.142;3.732;2022-07-04T09:55:40;6.22;;;3.90;;
59922;SDS011;45778;51.142;3.732;2022-07-04T09:58:10;14.60;;;4.22;;
59922;SDS011;45778;51.142;3.732;2022-07-04T10:00:38;8.60;;;4.07;;
59922;SDS011;45778;51.142;3.732;2022-07-04T10:03:16;9.75;;;4.00;;
59922;SDS011;45778;51.142;3.732;2022-07-04T10:06:10;8.18;;;3.38;;
59922;SDS011;45778;51.142;3.732;2022-07-04T10:08:40;8.68;;;3.97;;
59922;SDS011;45778;51.142;3.732;2022-07-04T10:11:07;6.97;;;3.63;;
59922;SDS011;45778;51.142;3.732;2022-07-04T10:13:33;10.40;;;3.78;;
59922;SDS011;45778;51.142;3.732;2022-07-04T10:15:59;7.10;;;3.03;;
59922;SDS011;45778;51.142;3.732;2022-07-04T10:18:25;7.70;;;3.33;;
59922;SDS011;45778;51.142;3.732;2022-07-04T10:20:52;6.15;;;3.30;;
59922;SDS011;45778;51.142;3.732;2022-07-04T10:23:19;8.55;;;3.40;;
59922;SDS011;45778;51.142;3.732;2022-07-04T10:25:47;4.95;;;3.05;;
59922;SDS011;45778;51.142;3.732;2022-07-04T10:28:13;5.93;;;2.53;;
59922;SDS011;45778;51.142;3.732;2022-07-04T10:30:39;8.27;;;3.58;;
59922;SDS011;45778;51.142;3.732;2022-07-04T10:33:07;9.68;;;2.88;;
59922;SDS011;45778;51.142;3.732;2022-07-04T10:35:51;8.05;;;2.70;;
59922;SDS011;45778;51.142;3.732;2022-07-04T10:38:27;8.18;;;3.55;;
59922;SDS011;45778;51.142;3.732;2022-07-04T10:40:55;5.68;;;2.90;;
59922;SDS011;45778;51.142;3.732;2022-07-04T10:45:51;6.75;;;3.65;;
59922;SDS011;45778;51.142;3.732;2022-07-04T10:48:23;10.00;;;3.95;;
59922;SDS011;45778;51.142;3.732;2022-07-04T10:50:59;5.90;;;2.42;;
59922;SDS011;45778;51.142;3.732;2022-07-04T10:53:29;5.57;;;2.97;;
59922;SDS011;45778;51.142;3.732;2022-07-04T10:58:40;6.03;;;2.83;;
59922;SDS011;45778;51.142;3.732;2022-07-04T11:01:14;7.68;;;3.47;;
59922;SDS011;45778;51.142;3.732;2022-07-04T11:03:44;4.47;;;3.30;;
59922;SDS011;45778;51.142;3.732;2022-07-04T11:11:55;7.65;;;3.38;;
59922;SDS011;45778;51.142;3.732;2022-07-04T11:14:35;5.28;;;2.72;;
59922;SDS011;45778;51.142;3.732;2022-07-04T11:17:11;5.07;;;2.22;;
59922;SDS011;45778;51.142;3.732;2022-07-04T11:19:39;7.00;;;2.63;;
59922;SDS011;45778;51.142;3.732;2022-07-04T11:22:06;5.57;;;2.53;;
59922;SDS011;45778;51.142;3.732;2022-07-04T11:24:34;4.85;;;2.58;;
59922;SDS011;45778;51.142;3.732;2022-07-04T11:27:00;5.57;;;2.35;;
59922;SDS011;45778;51.142;3.732;2022-07-04T11:29:26;7.60;;;2.80;;
59922;SDS011;45778;51.142;3.732;2022-07-04T11:31:53;3.90;;;2.20;;
59922;SDS011;45778;51.142;3.732;2022-07-04T11:34:19;6.50;;;2.97;;
59922;SDS011;45778;51.142;3.732;2022-07-04T11:36:49;5.13;;;2.88;;
59922;SDS011;45778;51.142;3.732;2022-07-04T11:39:17;7.82;;;2.97;;
59922;SDS011;45778;51.142;3.732;2022-07-04T11:41:47;5.78;;;1.95;;
59922;SDS011;45778;51.142;3.732;2022-07-04T11:44:34;7.82;;;3.25;;
59922;SDS011;45778;51.142;3.732;2022-07-04T11:47:39;6.97;;;2.75;;
59922;SDS011;45778;51.142;3.732;2022-07-04T11:50:07;6.88;;;3.70;;
59922;SDS011;45778;51.142;3.732;2022-07-04T11:52:40;4.20;;;2.92;;
59922;SDS011;45778;51.142;3.732;2022-07-04T11:55:08;6.47;;;3.92;;
59922;SDS011;45778;51.142;3.732;2022-07-04T11:57:36;4.55;;;3.47;;
59922;SDS011;45778;51.142;3.732;2022-07-04T12:00:11;4.50;;;3.33;;
59922;SDS011;45778;51.142;3.732;2022-07-04T12:02:38;6.72;;;4.03;;
59922;SDS011;45778;51.142;3.732;2022-07-04T12:05:06;4.70;;;3.28;;
59922;SDS011;45778;51.142;3.732;2022-07-04T12:07:34;7.82;;;3.75;;
59922;SDS011;45778;51.142;3.732;2022-07-04T12:10:12;11.02;;;4.32;;
59922;SDS011;45778;51.142;3.732;2022-07-04T12:12:57;6.20;;;4.60;;
59922;SDS011;45778;51.142;3.732;2022-07-04T12:20:47;6.88;;;4.10;;
59922;SDS011;45778;51.142;3.732;2022-07-04T12:23:14;5.78;;;3.60;;
59922;SDS011;45778;51.142;3.732;2022-07-04T12:25:40;5.15;;;3.88;;
59922;SDS011;45778;51.142;3.732;2022-07-04T12:28:11;4.78;;;3.92;;
59922;SDS011;45778;51.142;3.732;2022-07-04T12:30:48;7.15;;;3.35;;
59922;SDS011;45778;51.142;3.732;2022-07-04T12:33:19;8.15;;;3.60;;
59922;SDS011;45778;51.142;3.732;2022-07-04T12:46:08;7.88;;;3.35;;
59922;SDS011;45778;51.142;3.732;2022-07-04T12:48:40;7.65;;;3.38;;
59922;SDS011;45778;51.142;3.732;2022-07-04T12:53:37;4.22;;;2.40;;
59922;SDS011;45778;51.142;3.732;2022-07-04T12:56:05;3.40;;;2.60;;
59922;SDS011;45778;51.142;3.732;2022-07-04T12:58:31;6.78;;;3.15;;
59922;SDS011;45778;51.142;3.732;2022-07-04T13:00:57;8.05;;;3.08;;
59922;SDS011;45778;51.142;3.732;2022-07-04T13:03:23;4.20;;;2.55;;
59922;SDS011;45778;51.142;3.732;2022-07-04T13:05:49;6.90;;;3.55;;
59922;SDS011;45778;51.142;3.732;2022-07-04T13:08:15;4.13;;;3.00;;
59922;SDS011;45778;51.142;3.732;2022-07-04T13:10:41;4.80;;;3.42;;
59922;SDS011;45778;51.142;3.732;2022-07-04T13:13:07;6.43;;;3.05;;
59922;SDS011;45778;51.142;3.732;2022-07-04T13:15:33;5.22;;;3.10;;
59922;SDS011;45778;51.142;3.732;2022-07-04T13:17:58;6.13;;;3.00;;
59922;SDS011;45778;51.142;3.732;2022-07-04T13:20:24;7.55;;;3.05;;
59922;SDS011;45778;51.142;3.732;2022-07-04T13:22:50;9.75;;;2.67;;
59922;SDS011;45778;51.142;3.732;2022-07-04T13:25:17;8.68;;;3.42;;
59922;SDS011;45778;51.142;3.732;2022-07-04T13:27:43;6.50;;;3.58;;
59922;SDS011;45778;51.142;3.732;2022-07-04T13:30:09;4.82;;;3.08;;
59922;SDS011;45778;51.142;3.732;2022-07-04T13:32:35;4.80;;;3.17;;
59922;SDS011;45778;51.142;3.732;2022-07-04T13:35:01;6.47;;;3.00;;
59922;SDS011;45778;51.142;3.732;2022-07-04T13:37:28;6.07;;;3.58;;
59922;SDS011;45778;51.142;3.732;2022-07-04T13:39:54;6.15;;;3.22;;
59922;SDS011;45778;51.142;3.732;2022-07-04T13:42:20;4.63;;;2.95;;
59922;SDS011;45778;51.142;3.732;2022-07-04T13:45:04;9.45;;;2.60;;
59922;SDS011;45778;51.142;3.732;2022-07-04T13:47:31;6.03;;;2.88;;
59922;SDS011;45778;51.142;3.732;2022-07-04T13:49:56;5.03;;;2.80;;
59922;SDS011;45778;51.142;3.732;2022-07-04T13:52:22;3.65;;;2.45;;
59922;SDS011;45778;51.142;3.732;2022-07-04T13:54:48;5.03;;;2.53;;
59922;SDS011;45778;51.142;3.732;2022-07-04T13:57:13;3.58;;;2.80;;
59922;SDS011;45778;51.142;3.732;2022-07-04T13:59:39;6.07;;;3.10;;
59922;SDS011;45778;51.142;3.732;2022-07-04T14:02:05;4.00;;;2.53;;
59922;SDS011;45778;51.142;3.732;2022-07-04T14:04:31;4.38;;;3.10;;
59922;SDS011;45778;51.142;3.732;2022-07-04T14:06:57;4.80;;;3.35;;
59922;SDS011;45778;51.142;3.732;2022-07-04T14:09:23;3.28;;;2.90;;
59922;SDS011;45778;51.142;3.732;2022-07-04T14:11:49;3.60;;;2.65;;
59922;SDS011;45778;51.142;3.732;2022-07-04T14:14:14;5.40;;;2.58;;
59922;SDS011;45778;51.142;3.732;2022-07-04T14:16:40;4.15;;;2.00;;
59922;SDS011;45778;51.142;3.732;2022-07-04T14:19:06;6.93;;;2.05;;
59922;SDS011;45778;51.142;3.732;2022-07-04T14:21:31;4.47;;;2.58;;
59922;SDS011;45778;51.142;3.732;2022-07-04T14:23:57;6.28;;;3.42;;
59922;SDS011;45778;51.142;3.732;2022-07-04T14:26:22;8.20;;;3.17;;
59922;SDS011;45778;51.142;3.732;2022-07-04T14:28:50;6.60;;;3.28;;
59922;SDS011;45778;51.142;3.732;2022-07-04T14:31:17;5.40;;;3.42;;
59922;SDS011;45778;51.142;3.732;2022-07-04T14:33:42;9.55;;;3.10;;
59922;SDS011;45778;51.142;3.732;2022-07-04T14:36:08;7.40;;;3.40;;
59922;SDS011;45778;51.142;3.732;2022-07-04T14:38:35;8.35;;;3.00;;
59922;SDS011;45778;51.142;3.732;2022-07-04T14:41:03;4.43;;;3.08;;
59922;SDS011;45778;51.142;3.732;2022-07-04T14:43:35;6.95;;;2.67;;
59922;SDS011;45778;51.142;3.732;2022-07-04T14:46:02;8.32;;;2.60;;
59922;SDS011;45778;51.142;3.732;2022-07-04T14:48:28;8.02;;;1.98;;
59922;SDS011;45778;51.142;3.732;2022-07-04T14:50:54;3.95;;;2.67;;
59922;SDS011;45778;51.142;3.732;2022-07-04T14:53:19;14.52;;;3.45;;
59922;SDS011;45778;51.142;3.732;2022-07-04T14:55:46;8.02;;;3.00;;
59922;SDS011;45778;51.142;3.732;2022-07-04T14:58:12;5.22;;;2.40;;
59922;SDS011;45778;51.142;3.732;2022-07-04T15:00:38;4.15;;;2.58;;
59922;SDS011;45778;51.142;3.732;2022-07-04T15:03:04;6.55;;;2.58;;
59922;SDS011;45778;51.142;3.732;2022-07-04T15:05:29;5.07;;;2.85;;
59922;SDS011;45778;51.142;3.732;2022-07-04T15:07:55;4.38;;;2.47;;
59922;SDS011;45778;51.142;3.732;2022-07-04T15:10:24;4.88;;;2.67;;
59922;SDS011;45778;51.142;3.732;2022-07-04T15:12:50;3.55;;;2.22;;
59922;SDS011;45778;51.142;3.732;2022-07-04T15:15:16;7.97;;;2.35;;